Time;durP1;ratioP1;P1;durP2;ratioP2;P2;SDS_P1;SDS_P2;PMS_P1;PMS_P2;Temp;Humidity;BMP_temperature;BMP_pressure;BME280_temperature;BME280_humidity;BME280_pressure;Samples;Min_cycle;Max_cycle;Signal;HPM_P1;HPM_P2
2021/03/13 00:01:10;;;;;;;1.10;1.00;;;19.90;41.60;;;;;;5067672;28;20468;-71
2021/03/13 00:03:36;;;;;;;0.80;0.80;;;19.80;41.60;;;;;;5070850;28;20495;-71
2021/03/13 00:06:02;;;;;;;0.70;0.70;;;19.80;41.70;;;;;;5068476;28;20477;-71
2021/03/13 00:08:29;;;;;;;1.07;0.60;;;19.80;41.80;;;;;;5061807;28;20489;-71
2021/03/13 00:10:55;;;;;;;1.30;0.90;;;19.80;41.70;;;;;;5099316;27;20486;-71
2021/03/13 00:13:22;;;;;;;1.53;0.70;;;19.80;41.70;;;;;;5089963;27;20464;-71
2021/03/13 00:15:48;;;;;;;1.23;1.00;;;19.80;41.50;;;;;;5070814;28;20479;-70
2021/03/13 00:18:14;;;;;;;0.87;0.60;;;19.90;41.50;;;;;;5070500;28;20485;-71
2021/03/13 00:20:41;;;;;;;2.83;0.70;;;19.90;41.50;;;;;;5091266;28;20471;-70
2021/03/13 00:23:07;;;;;;;1.30;0.70;;;19.90;41.40;;;;;;5060170;28;20558;-71
2021/03/13 00:25:35;;;;;;;1.37;0.60;;;19.90;41.20;;;;;;5068181;28;20518;-71
2021/03/13 00:28:01;;;;;;;2.60;0.90;;;19.90;41.30;;;;;;5072069;28;20473;-71
2021/03/13 00:30:28;;;;;;;0.70;0.60;;;19.90;41.30;;;;;;5073465;28;20525;-71
2021/03/13 00:32:56;;;;;;;0.50;0.50;;;19.90;41.30;;;;;;5071108;28;20473;-71
2021/03/13 00:35:23;;;;;;;0.50;0.50;;;19.90;41.40;;;;;;5070769;28;20477;-70
2021/03/13 00:37:49;;;;;;;0.60;0.50;;;19.90;41.40;;;;;;5075708;28;20837;-71
2021/03/13 00:40:17;;;;;;;1.73;0.60;;;19.80;41.40;;;;;;5061647;28;20469;-71
2021/03/13 00:42:44;;;;;;;0.53;0.53;;;19.80;41.40;;;;;;5063498;28;20898;-70
2021/03/13 00:45:12;;;;;;;0.50;0.50;;;19.80;41.50;;;;;;5093206;28;20479;-71
2021/03/13 00:47:38;;;;;;;0.77;0.60;;;19.80;41.50;;;;;;5069010;28;20473;-71
2021/03/13 00:50:05;;;;;;;0.80;0.80;;;19.80;41.50;;;;;;5071530;28;20485;-70
2021/03/13 00:52:31;;;;;;;0.80;0.60;;;19.80;41.50;;;;;;5078240;28;20833;-71
2021/03/13 00:54:58;;;;;;;0.57;0.57;;;19.80;41.60;;;;;;5068735;28;20486;-71
2021/03/13 00:57:24;;;;;;;2.23;0.60;;;19.70;41.50;;;;;;5071148;28;20492;-71
2021/03/13 00:59:51;;;;;;;1.70;0.60;;;19.80;42.40;;;;;;5072273;28;21581;-70
2021/03/13 01:02:17;;;;;;;0.70;0.50;;;19.80;41.60;;;;;;5069468;28;20469;-70
2021/03/13 01:04:43;;;;;;;0.60;0.60;;;19.80;41.50;;;;;;5067555;28;20489;-71
2021/03/13 01:07:09;;;;;;;2.00;0.70;;;19.80;41.50;;;;;;5064573;28;20475;-71
2021/03/13 01:09:36;;;;;;;1.57;1.10;;;19.80;41.50;;;;;;5077965;28;20481;-71
2021/03/13 01:12:02;;;;;;;0.70;0.67;;;19.80;41.50;;;;;;5069994;28;20473;-71
2021/03/13 01:14:28;;;;;;;2.60;0.70;;;19.70;41.40;;;;;;5068311;28;20478;-71
2021/03/13 01:16:55;;;;;;;0.60;0.60;;;19.70;41.40;;;;;;5070008;28;20481;-71
2021/03/13 01:19:22;;;;;;;0.87;0.50;;;19.70;41.50;;;;;;5057384;28;20489;-71
2021/03/13 01:21:48;;;;;;;0.50;0.50;;;19.70;41.40;;;;;;5067497;28;20493;-70
2021/03/13 01:24:14;;;;;;;0.40;0.40;;;19.70;41.40;;;;;;5073159;28;20480;-71
2021/03/13 01:26:40;;;;;;;0.50;0.50;;;19.70;41.40;;;;;;5073095;28;20550;-71
2021/03/13 01:29:06;;;;;;;1.70;0.70;;;19.70;41.50;;;;;;5073955;28;20491;-70
2021/03/13 01:31:33;;;;;;;0.60;0.60;;;19.70;41.40;;;;;;5063988;27;20485;-73
2021/03/13 01:34:00;;;;;;;0.63;0.60;;;19.70;41.40;;;;;;5102695;27;20905;-70
2021/03/13 01:36:26;;;;;;;0.57;0.57;;;19.70;41.40;;;;;;5071113;28;21573;-71
2021/03/13 01:38:52;;;;;;;1.33;0.70;;;19.70;41.40;;;;;;5075043;28;21248;-71
2021/03/13 01:41:18;;;;;;;0.50;0.50;;;19.70;41.40;;;;;;5074003;28;20481;-69
2021/03/13 01:43:44;;;;;;;0.60;0.60;;;19.70;41.30;;;;;;5070550;28;20483;-71
2021/03/13 01:46:11;;;;;;;0.50;0.50;;;19.70;41.30;;;;;;5071544;27;20482;-71
2021/03/13 01:48:39;;;;;;;2.10;0.73;;;19.70;41.30;;;;;;5089592;27;20469;-71
2021/03/13 01:51:06;;;;;;;1.13;0.50;;;19.70;41.30;;;;;;5073338;27;21582;-70
2021/03/13 01:53:33;;;;;;;0.50;0.50;;;19.70;41.30;;;;;;5090776;27;20477;-70
2021/03/13 01:55:59;;;;;;;0.87;0.70;;;19.70;41.20;;;;;;5073892;28;20480;-71
2021/03/13 01:58:25;;;;;;;0.50;0.50;;;19.70;41.30;;;;;;5073051;28;21033;-70
2021/03/13 02:00:51;;;;;;;0.43;0.43;;;19.70;41.20;;;;;;5072000;28;20526;-70
2021/03/13 02:03:17;;;;;;;0.60;0.50;;;19.80;41.10;;;;;;5072834;28;21265;-70
2021/03/13 02:05:44;;;;;;;1.00;0.57;;;19.80;41.00;;;;;;5071236;28;20484;-71
2021/03/13 02:08:16;;;;;;;0.60;0.50;;;19.80;41.10;;;;;;5073085;28;20487;-70
2021/03/13 02:10:46;;;;;;;1.03;0.60;;;19.80;41.00;;;;;;5073050;28;20994;-70
2021/03/13 02:13:16;;;;;;;0.90;0.50;;;19.80;41.90;;;;;;5070808;28;20613;-71
2021/03/13 02:15:49;;;;;;;0.60;0.50;;;19.70;41.00;;;;;;5071018;28;20492;-71
2021/03/13 02:18:19;;;;;;;0.83;0.57;;;19.70;41.10;;;;;;5070380;28;20858;-70
2021/03/13 02:21:02;;;;;;;1.27;0.60;;;19.70;41.10;;;;;;5072906;28;20525;-71
2021/03/13 02:23:29;;;;;;;0.70;0.70;;;19.70;41.10;;;;;;5071946;28;21223;-69
2021/03/13 02:26:00;;;;;;;0.63;0.40;;;19.70;41.10;;;;;;5073881;28;20477;-70
2021/03/13 02:28:31;;;;;;;1.47;0.50;;;19.70;41.10;;;;;;5061457;28;20535;-70
2021/03/13 02:30:58;;;;;;;1.43;0.47;;;19.70;41.20;;;;;;5071444;28;20484;-71
2021/03/13 02:33:26;;;;;;;2.07;0.73;;;19.70;41.90;;;;;;5072840;28;21081;-71
2021/03/13 02:35:56;;;;;;;0.60;0.60;;;19.70;41.10;;;;;;5060481;28;20981;-71
2021/03/13 02:38:25;;;;;;;0.60;0.60;;;19.70;41.10;;;;;;5064459;28;20480;-70
2021/03/13 02:40:51;;;;;;;0.80;0.80;;;19.70;41.00;;;;;;5092902;27;20483;-71
2021/03/13 02:43:18;;;;;;;1.67;0.60;;;19.70;41.00;;;;;;5071917;27;20480;-70
2021/03/13 02:45:47;;;;;;;0.90;0.67;;;19.70;41.00;;;;;;5070591;28;20493;-70
2021/03/13 02:48:17;;;;;;;0.73;0.73;;;19.70;41.10;;;;;;5069565;28;20490;-71
2021/03/13 02:50:43;;;;;;;0.70;0.70;;;19.70;41.10;;;;;;5070169;28;20485;-71
2021/03/13 02:53:09;;;;;;;0.60;0.60;;;19.70;41.10;;;;;;5085141;27;20556;-70
2021/03/13 02:55:35;;;;;;;3.80;0.60;;;19.70;41.90;;;;;;5076188;27;20527;-71
2021/03/13 02:58:02;;;;;;;0.50;0.50;;;19.70;41.10;;;;;;5070404;28;20482;-71
2021/03/13 03:00:31;;;;;;;1.07;1.07;;;19.60;41.00;;;;;;5071728;28;20504;-70
2021/03/13 03:02:58;;;;;;;0.70;0.60;;;19.60;41.10;;;;;;5087479;28;20478;-69
2021/03/13 03:05:26;;;;;;;0.60;0.60;;;19.60;41.00;;;;;;5095537;28;20477;-71
2021/03/13 03:07:53;;;;;;;1.90;0.50;;;19.60;41.00;;;;;;5079127;28;20477;-71
2021/03/13 03:10:19;;;;;;;1.83;0.80;;;19.70;41.10;;;;;;5073263;28;20480;-70
2021/03/13 03:12:47;;;;;;;0.97;0.70;;;19.60;41.10;;;;;;5093957;27;20471;-70
2021/03/13 03:15:13;;;;;;;0.70;0.53;;;19.70;41.20;;;;;;5069130;28;20493;-71
2021/03/13 03:17:39;;;;;;;1.30;0.60;;;19.60;41.10;;;;;;5086372;27;21084;-70
2021/03/13 03:20:06;;;;;;;2.13;0.93;;;19.60;41.10;;;;;;5083705;27;21235;-70
2021/03/13 03:22:34;;;;;;;0.87;0.87;;;19.60;41.00;;;;;;5086075;27;21242;-70
2021/03/13 03:25:01;;;;;;;0.60;0.57;;;19.60;41.00;;;;;;5071945;28;20480;-70
2021/03/13 03:27:27;;;;;;;1.97;0.60;;;19.60;41.00;;;;;;5069523;28;20493;-70
2021/03/13 03:29:53;;;;;;;0.50;0.50;;;19.60;40.90;;;;;;5068828;28;20524;-71
2021/03/13 03:32:19;;;;;;;0.60;0.60;;;19.60;40.90;;;;;;5080153;27;20543;-70
2021/03/13 03:34:46;;;;;;;0.70;0.70;;;19.60;40.90;;;;;;5077083;27;20492;-70
2021/03/13 03:37:12;;;;;;;0.60;0.60;;;19.60;41.70;;;;;;5071120;28;20508;-70
2021/03/13 03:39:39;;;;;;;0.70;0.70;;;19.60;40.90;;;;;;5067347;28;21142;-70
2021/03/13 03:42:05;;;;;;;3.40;1.03;;;19.60;41.00;;;;;;5072885;28;20482;-70
2021/03/13 03:44:36;;;;;;;1.23;0.67;;;19.60;41.00;;;;;;5068972;28;20477;-70
2021/03/13 03:47:04;;;;;;;0.60;0.60;;;19.60;40.90;;;;;;5069998;28;20614;-70
2021/03/13 03:49:30;;;;;;;0.77;0.67;;;19.60;40.90;;;;;;5069007;28;20488;-70
2021/03/13 03:51:56;;;;;;;0.50;0.50;;;19.70;41.00;;;;;;5070417;28;20481;-70
2021/03/13 03:54:22;;;;;;;0.73;0.73;;;19.70;40.90;;;;;;5071135;28;21136;-70
2021/03/13 03:56:49;;;;;;;0.90;0.70;;;19.70;40.90;;;;;;5069695;28;20477;-69
2021/03/13 03:59:17;;;;;;;0.70;0.70;;;19.70;40.90;;;;;;5070416;28;20477;-70
2021/03/13 04:01:45;;;;;;;1.40;1.20;;;19.70;40.90;;;;;;5068588;28;20508;-70
2021/03/13 04:04:11;;;;;;;0.97;0.60;;;19.70;40.90;;;;;;5068056;28;21622;-70
2021/03/13 04:06:37;;;;;;;2.30;0.93;;;19.60;40.90;;;;;;5092081;27;20539;-69
2021/03/13 04:09:04;;;;;;;1.73;1.10;;;19.60;41.00;;;;;;5071035;28;20491;-70
2021/03/13 04:11:30;;;;;;;2.77;0.80;;;19.70;41.10;;;;;;5071282;28;21079;-70
2021/03/13 04:13:58;;;;;;;0.90;0.90;;;19.60;41.00;;;;;;5068023;28;20857;-70
2021/03/13 04:16:25;;;;;;;0.70;0.70;;;19.60;41.00;;;;;;5051795;28;20529;-71
2021/03/13 04:18:51;;;;;;;0.63;0.63;;;19.60;41.00;;;;;;5071022;28;21180;-70
2021/03/13 04:21:18;;;;;;;1.80;0.70;;;19.60;41.00;;;;;;5070106;28;20534;-69
2021/03/13 04:23:45;;;;;;;1.67;1.07;;;19.60;41.00;;;;;;5067748;28;20879;-71
2021/03/13 04:26:12;;;;;;;0.83;0.83;;;19.60;41.00;;;;;;5082743;28;20537;-70
2021/03/13 04:28:38;;;;;;;1.37;0.70;;;19.60;41.10;;;;;;5072744;28;21368;-70
2021/03/13 04:31:05;;;;;;;1.40;1.07;;;19.60;41.00;;;;;;5072179;28;20482;-70
2021/03/13 04:33:31;;;;;;;2.10;1.00;;;19.60;41.00;;;;;;5068196;28;20490;-70
2021/03/13 04:35:58;;;;;;;1.13;0.70;;;19.60;41.00;;;;;;5090201;28;20996;-70
2021/03/13 04:38:24;;;;;;;1.33;1.00;;;19.60;40.90;;;;;;5057237;28;20477;-70
2021/03/13 04:40:50;;;;;;;1.87;1.00;;;19.60;41.00;;;;;;5070336;28;20569;-70
2021/03/13 04:43:18;;;;;;;1.10;0.97;;;19.60;41.10;;;;;;5070726;28;20534;-70
2021/03/13 04:45:45;;;;;;;2.87;1.30;;;19.60;41.00;;;;;;5065529;28;20477;-70
2021/03/13 04:48:12;;;;;;;0.87;0.87;;;19.60;41.10;;;;;;5067400;28;20473;-70
2021/03/13 04:50:38;;;;;;;2.00;1.07;;;19.60;41.10;;;;;;5078619;28;20482;-70
2021/03/13 04:53:05;;;;;;;1.43;1.13;;;19.60;41.20;;;;;;5088121;28;20494;-69
2021/03/13 04:55:31;;;;;;;0.90;0.90;;;19.60;41.10;;;;;;5084091;28;20492;-69
2021/03/13 04:57:57;;;;;;;2.53;0.70;;;19.60;41.10;;;;;;5068213;28;21014;-70
2021/03/13 05:00:24;;;;;;;2.70;1.10;;;19.60;41.10;;;;;;5071915;28;20477;-70
2021/03/13 05:02:50;;;;;;;0.90;0.90;;;19.60;41.10;;;;;;5073479;28;20476;-71
2021/03/13 05:05:17;;;;;;;0.87;0.87;;;19.60;41.10;;;;;;5072498;28;20503;-70
2021/03/13 05:07:43;;;;;;;1.27;1.20;;;19.60;41.10;;;;;;5075208;28;20480;-71
2021/03/13 05:10:10;;;;;;;1.30;0.97;;;19.50;41.10;;;;;;5071914;28;20833;-70
2021/03/13 05:12:36;;;;;;;3.80;1.40;;;19.50;41.20;;;;;;5076881;28;20476;-70
2021/03/13 05:15:07;;;;;;;1.57;1.07;;;19.50;41.20;;;;;;5073627;28;21122;-70
2021/03/13 05:17:33;;;;;;;4.77;0.93;;;19.50;41.30;;;;;;5067639;28;20480;-70
2021/03/13 05:19:59;;;;;;;1.37;1.27;;;19.50;41.40;;;;;;5102221;27;20543;-70
2021/03/13 05:22:26;;;;;;;1.07;1.03;;;19.50;41.40;;;;;;5071623;28;20516;-70
2021/03/13 05:24:52;;;;;;;2.40;0.93;;;19.50;41.40;;;;;;5073118;28;20482;-70
2021/03/13 05:27:18;;;;;;;5.67;1.20;;;19.50;41.50;;;;;;5072880;28;20489;-70
2021/03/13 05:29:45;;;;;;;2.30;1.10;;;19.40;41.40;;;;;;5072796;28;20616;-69
2021/03/13 05:32:11;;;;;;;1.27;0.97;;;19.50;41.50;;;;;;5070366;28;20487;-69
2021/03/13 05:34:37;;;;;;;1.20;1.10;;;19.40;41.40;;;;;;5070924;28;20472;-70
2021/03/13 05:37:03;;;;;;;0.77;0.77;;;19.50;41.40;;;;;;5073466;28;20484;-70
2021/03/13 05:39:30;;;;;;;1.17;1.00;;;19.50;41.30;;;;;;5072025;28;20476;-71
2021/03/13 05:41:56;;;;;;;1.60;1.03;;;19.50;41.30;;;;;;5070748;27;20471;-70
2021/03/13 05:44:22;;;;;;;1.23;1.00;;;19.50;41.30;;;;;;5083446;27;20480;-70
2021/03/13 05:46:49;;;;;;;1.37;1.17;;;19.50;41.40;;;;;;5069892;28;20541;-70
2021/03/13 05:49:15;;;;;;;1.33;1.23;;;19.50;41.40;;;;;;5071493;28;20480;-70
2021/03/13 05:51:43;;;;;;;1.07;0.70;;;19.50;41.50;;;;;;5072088;28;20473;-70
2021/03/13 05:54:11;;;;;;;1.17;1.00;;;19.50;41.50;;;;;;5074740;28;21627;-70
2021/03/13 05:56:38;;;;;;;0.87;0.87;;;19.50;41.50;;;;;;5073447;28;21255;-71
2021/03/13 05:59:05;;;;;;;2.10;0.87;;;19.40;42.20;;;;;;5074239;28;20487;-69
2021/03/13 06:01:31;;;;;;;1.70;1.33;;;19.40;41.40;;;;;;5073066;28;20488;-70
2021/03/13 06:03:57;;;;;;;2.17;1.13;;;19.50;41.50;;;;;;5076349;27;20913;-70
2021/03/13 06:06:24;;;;;;;1.50;1.00;;;19.50;41.40;;;;;;5083518;27;20511;-70
2021/03/13 06:08:50;;;;;;;1.03;1.03;;;19.50;41.50;;;;;;5097176;27;20523;-71
2021/03/13 06:11:17;;;;;;;3.17;1.10;;;19.50;41.40;;;;;;5074937;28;20465;-69
2021/03/13 06:13:44;;;;;;;2.70;1.67;;;19.40;41.50;;;;;;5086743;27;20864;-70
2021/03/13 06:16:10;;;;;;;1.70;1.60;;;19.40;41.30;;;;;;5075275;27;20488;-70
2021/03/13 06:18:51;;;;;;;2.90;1.87;;;19.30;41.20;;;;;;5073492;28;20549;-70
2021/03/13 06:21:21;;;;;;;1.97;1.10;;;19.30;41.20;;;;;;5074645;28;20503;-69
2021/03/13 06:23:47;;;;;;;2.10;1.30;;;19.40;41.20;;;;;;5071168;28;20595;-70
2021/03/13 06:26:13;;;;;;;2.80;0.93;;;19.40;41.10;;;;;;5089738;27;20583;-70
2021/03/13 06:28:39;;;;;;;1.20;1.00;;;19.50;41.10;;;;;;5076972;27;20839;-70
2021/03/13 06:31:07;;;;;;;2.50;1.40;;;19.50;41.10;;;;;;5086935;27;20491;-69
2021/03/13 06:33:33;;;;;;;4.20;1.00;;;19.50;41.00;;;;;;5078576;27;20485;-70
2021/03/13 06:36:01;;;;;;;1.30;1.03;;;19.50;40.90;;;;;;5084153;27;20471;-70
2021/03/13 06:38:28;;;;;;;1.80;1.30;;;19.50;41.00;;;;;;5066145;28;20480;-70
2021/03/13 06:40:55;;;;;;;0.87;0.87;;;19.50;41.10;;;;;;5073709;28;20851;-70
2021/03/13 06:43:24;;;;;;;2.13;1.20;;;19.50;41.20;;;;;;5069336;28;21217;-70
2021/03/13 06:45:59;;;;;;;4.07;0.90;;;19.50;41.20;;;;;;5068631;28;20481;-70
2021/03/13 06:48:38;;;;;;;2.00;1.17;;;19.40;41.40;;;;;;5073511;28;20477;-70
2021/03/13 06:51:24;;;;;;;1.80;1.20;;;19.30;41.40;;;;;;5078498;28;20468;-71
2021/03/13 06:54:10;;;;;;;1.50;1.40;;;19.30;41.70;;;;;;5081321;27;20484;-69
2021/03/13 06:56:38;;;;;;;1.83;1.13;;;19.30;41.60;;;;;;5106865;27;21067;-69
2021/03/13 06:59:22;;;;;;;2.03;1.13;;;19.30;41.60;;;;;;5073463;28;20484;-69
2021/03/13 07:02:00;;;;;;;4.50;2.07;;;19.30;41.70;;;;;;5087109;27;20490;-70
2021/03/13 07:04:31;;;;;;;2.20;1.53;;;19.30;41.70;;;;;;5072789;28;20477;-70
2021/03/13 07:06:57;;;;;;;2.03;1.40;;;19.40;41.80;;;;;;5075119;27;20907;-71
2021/03/13 07:09:42;;;;;;;1.70;0.80;;;19.40;41.80;;;;;;5085867;27;20477;-70
2021/03/13 07:12:20;;;;;;;0.90;0.90;;;19.40;41.80;;;;;;5063813;28;21091;-69
2021/03/13 07:14:46;;;;;;;1.27;0.80;;;19.40;41.80;;;;;;5093406;27;20500;-70
2021/03/13 07:17:14;;;;;;;1.43;1.33;;;19.40;41.80;;;;;;5068966;28;20480;-70
2021/03/13 07:19:41;;;;;;;1.70;1.60;;;19.40;41.70;;;;;;5068176;28;20988;-69
2021/03/13 07:22:07;;;;;;;2.27;0.90;;;19.50;41.70;;;;;;5069135;28;20473;-71
2021/03/13 07:24:33;;;;;;;1.30;1.10;;;19.50;41.60;;;;;;5069920;28;20477;-70
2021/03/13 07:27:00;;;;;;;1.80;1.00;;;19.60;41.60;;;;;;5069136;28;20527;-70
2021/03/13 07:29:26;;;;;;;1.37;1.27;;;19.60;41.50;;;;;;5084750;27;20526;-70
2021/03/13 07:31:56;;;;;;;0.90;0.90;;;19.70;41.50;;;;;;5075784;28;21078;-70
2021/03/13 07:34:24;;;;;;;1.70;0.90;;;19.80;41.40;;;;;;5073021;28;21065;-70
2021/03/13 07:36:53;;;;;;;1.20;1.10;;;19.80;41.40;;;;;;5091352;27;20897;-70
2021/03/13 07:39:21;;;;;;;2.10;0.97;;;19.80;41.30;;;;;;5067873;28;20496;-69
2021/03/13 07:41:50;;;;;;;1.60;0.93;;;19.80;41.40;;;;;;5094178;27;20487;-70
2021/03/13 07:44:16;;;;;;;1.00;0.90;;;19.80;41.40;;;;;;5069526;28;20590;-70
2021/03/13 07:46:42;;;;;;;2.50;1.20;;;19.80;41.40;;;;;;5069992;28;20481;-69
2021/03/13 07:49:10;;;;;;;1.23;1.23;;;19.70;41.40;;;;;;5086543;27;20487;-69
2021/03/13 07:51:36;;;;;;;1.63;1.17;;;19.80;41.40;;;;;;5075338;27;21543;-70
2021/03/13 07:54:03;;;;;;;0.70;0.70;;;19.70;41.30;;;;;;5070099;28;20511;-70
2021/03/13 07:56:31;;;;;;;0.93;0.83;;;19.80;41.50;;;;;;5068455;28;20492;-70
2021/03/13 07:58:57;;;;;;;0.63;0.63;;;19.70;41.40;;;;;;5070325;28;20538;-70
2021/03/13 08:01:48;;;;;;;1.67;1.03;;;19.70;41.50;;;;;;5062343;27;20488;-70
2021/03/13 08:04:51;;;;;;;1.63;1.07;;;19.70;41.50;;;;;;5088467;27;21027;-70
2021/03/13 08:07:17;;;;;;;1.30;0.77;;;19.70;41.50;;;;;;5070115;28;20484;-70
2021/03/13 08:09:45;;;;;;;0.80;0.80;;;19.70;41.50;;;;;;5063680;28;20485;-69
2021/03/13 08:12:11;;;;;;;2.53;0.70;;;19.70;41.50;;;;;;5097712;27;20493;-69
2021/03/13 08:14:37;;;;;;;5.50;0.80;;;19.70;42.00;;;;;;5069534;28;21058;-74
2021/03/13 08:17:06;;;;;;;0.70;0.70;;;19.80;42.90;;;;;;5085142;27;20513;-70
2021/03/13 08:19:34;;;;;;;1.77;0.60;;;19.80;43.10;;;;;;5081535;27;20479;-70
2021/03/13 08:22:16;;;;;;;3.87;0.80;;;19.80;42.20;;;;;;5085610;28;20904;-70
2021/03/13 08:24:45;;;;;;;1.03;0.87;;;19.80;42.10;;;;;;5068500;28;20483;-69
2021/03/13 08:27:12;;;;;;;0.87;0.83;;;19.70;42.10;;;;;;5071455;28;20493;-70
2021/03/13 08:29:57;;;;;;;0.50;0.50;;;19.70;42.10;;;;;;5068714;28;20476;-70
2021/03/13 08:32:56;;;;;;;1.23;0.60;;;19.70;42.10;;;;;;5069138;28;20475;-69
2021/03/13 08:35:48;;;;;;;0.70;0.60;;;19.70;42.20;;;;;;5007669;28;20484;-70
2021/03/13 08:38:15;;;;;;;1.07;0.77;;;19.70;42.10;;;;;;5002341;28;20485;-70
2021/03/13 08:40:44;;;;;;;1.27;0.73;;;19.60;42.10;;;;;;5059897;27;20484;-70
2021/03/13 08:43:36;;;;;;;0.87;0.87;;;19.70;42.20;;;;;;5073785;28;20468;-69
2021/03/13 08:46:03;;;;;;;1.97;0.70;;;19.70;42.20;;;;;;5065312;28;20482;-70
2021/03/13 08:48:57;;;;;;;1.23;0.90;;;19.70;42.20;;;;;;5072556;28;20488;-70
2021/03/13 08:51:23;;;;;;;0.60;0.60;;;19.70;42.10;;;;;;5069265;28;20898;-70
2021/03/13 08:53:50;;;;;;;0.77;0.63;;;19.80;42.10;;;;;;5080578;27;20997;-69
2021/03/13 08:56:37;;;;;;;2.40;0.60;;;19.80;42.00;;;;;;5083910;27;20559;-70
2021/03/13 08:59:09;;;;;;;0.50;0.50;;;19.90;42.00;;;;;;5062727;28;20481;-70
2021/03/13 09:01:35;;;;;;;0.50;0.50;;;19.90;42.00;;;;;;5074629;28;20501;-70
2021/03/13 09:04:01;;;;;;;0.90;0.70;;;19.80;41.90;;;;;;5071371;28;20481;-70
2021/03/13 09:06:27;;;;;;;0.50;0.50;;;19.80;41.90;;;;;;5070968;28;20508;-69
2021/03/13 09:09:07;;;;;;;0.70;0.70;;;19.80;42.00;;;;;;5074316;28;20477;-69
2021/03/13 09:11:34;;;;;;;0.90;0.70;;;19.70;42.00;;;;;;5065504;28;21069;-70
2021/03/13 09:14:01;;;;;;;1.60;0.50;;;19.70;42.10;;;;;;5072124;28;20966;-69
2021/03/13 09:16:27;;;;;;;0.90;0.60;;;19.80;42.20;;;;;;5070317;28;20525;-70
2021/03/13 09:18:54;;;;;;;0.90;0.57;;;19.80;42.20;;;;;;5071656;28;20482;-71
2021/03/13 09:21:43;;;;;;;4.73;0.53;;;19.80;42.00;;;;;;5068766;28;20484;-70
2021/03/13 09:24:10;;;;;;;0.80;0.60;;;19.80;41.90;;;;;;5069644;28;20468;-71
2021/03/13 09:26:36;;;;;;;1.00;0.57;;;19.90;42.10;;;;;;5069417;28;21246;-70
2021/03/13 09:29:04;;;;;;;0.60;0.60;;;19.80;42.00;;;;;;5067203;28;20493;-69
2021/03/13 09:31:30;;;;;;;0.97;0.60;;;19.80;42.10;;;;;;5084500;27;20468;-69
2021/03/13 09:34:12;;;;;;;0.60;0.60;;;19.80;42.00;;;;;;5070943;28;20535;-69
2021/03/13 09:36:38;;;;;;;0.40;0.40;;;19.80;42.20;;;;;;5068621;28;20484;-69
2021/03/13 09:39:05;;;;;;;0.40;0.40;;;19.80;42.20;;;;;;5069389;28;20484;-70
2021/03/13 09:41:31;;;;;;;0.47;0.47;;;19.80;42.20;;;;;;5071721;28;20473;-69
2021/03/13 09:43:58;;;;;;;0.50;0.50;;;19.80;42.20;;;;;;5063844;28;20503;-70
2021/03/13 09:46:25;;;;;;;0.50;0.50;;;19.80;42.30;;;;;;5069226;28;20848;-71
2021/03/13 09:48:51;;;;;;;3.00;0.60;;;19.80;42.90;;;;;;5065778;28;20620;-71
2021/03/13 09:51:17;;;;;;;5.03;0.67;;;19.90;44.20;;;;;;5069346;28;20492;-70
2021/03/13 09:53:43;;;;;;;1.93;0.50;;;19.90;44.50;;;;;;5072421;28;20487;-70
2021/03/13 09:56:09;;;;;;;1.73;0.63;;;20.00;45.00;;;;;;5068836;28;20485;-70
2021/03/13 09:58:36;;;;;;;0.80;0.67;;;20.00;43.60;;;;;;5063881;28;20484;-68
2021/03/13 10:01:02;;;;;;;0.40;0.40;;;19.90;42.60;;;;;;5102108;27;20477;-69
2021/03/13 10:03:29;;;;;;;0.40;0.40;;;19.90;42.40;;;;;;5071116;28;20533;-69
2021/03/13 10:05:56;;;;;;;0.40;0.40;;;19.90;42.30;;;;;;5068457;28;20481;-69
2021/03/13 10:08:23;;;;;;;0.50;0.50;;;19.80;42.30;;;;;;5064802;28;20531;-69
2021/03/13 10:10:51;;;;;;;0.50;0.50;;;19.90;42.30;;;;;;5071950;28;21471;-72
2021/03/13 10:13:17;;;;;;;0.50;0.40;;;19.90;44.50;;;;;;5068260;28;20585;-70
2021/03/13 10:15:44;;;;;;;0.63;0.50;;;19.80;42.80;;;;;;5067248;28;20535;-69
2021/03/13 10:18:10;;;;;;;0.50;0.47;;;19.80;42.30;;;;;;5071471;28;20488;-69
2021/03/13 10:20:38;;;;;;;0.50;0.50;;;19.80;42.40;;;;;;5069884;28;20480;-68
2021/03/13 10:23:06;;;;;;;0.60;0.53;;;19.80;42.30;;;;;;5068611;28;20489;-69
2021/03/13 10:25:33;;;;;;;0.40;0.40;;;19.80;42.30;;;;;;5071868;28;20597;-69
2021/03/13 10:28:04;;;;;;;0.40;0.40;;;19.80;42.30;;;;;;5069230;28;20503;-69
2021/03/13 10:30:30;;;;;;;0.40;0.40;;;19.80;42.30;;;;;;5071974;28;20480;-68
2021/03/13 10:32:56;;;;;;;1.37;0.50;;;19.70;42.30;;;;;;5089920;27;21083;-69
2021/03/13 10:35:26;;;;;;;0.40;0.40;;;19.80;42.40;;;;;;5070852;28;20505;-69
2021/03/13 10:37:54;;;;;;;1.70;0.50;;;19.80;42.30;;;;;;5072236;28;20488;-68
2021/03/13 10:40:35;;;;;;;0.50;0.50;;;19.80;42.30;;;;;;5067308;28;20486;-69
2021/03/13 10:43:21;;;;;;;0.50;0.50;;;19.80;42.30;;;;;;5070935;28;20489;-69
2021/03/13 10:46:05;;;;;;;0.57;0.57;;;19.80;42.30;;;;;;5066870;28;20534;-69
2021/03/13 10:48:32;;;;;;;1.07;0.50;;;19.80;42.30;;;;;;5058453;28;20481;-69
2021/03/13 10:50:58;;;;;;;0.40;0.40;;;19.80;42.30;;;;;;5092223;27;20495;-69
2021/03/13 10:53:33;;;;;;;0.40;0.40;;;19.70;42.30;;;;;;5071358;28;20485;-69
2021/03/13 10:56:00;;;;;;;0.50;0.50;;;19.80;42.40;;;;;;5073245;28;20477;-68
2021/03/13 10:58:27;;;;;;;1.37;0.50;;;19.80;42.50;;;;;;5079093;27;20475;-72
2021/03/13 11:00:53;;;;;;;2.77;0.70;;;19.80;43.80;;;;;;5072150;27;20489;-69
2021/03/13 11:03:19;;;;;;;0.73;0.73;;;19.80;44.00;;;;;;5067673;28;20493;-70
2021/03/13 11:05:47;;;;;;;0.60;0.50;;;19.90;43.00;;;;;;5066914;28;20485;-69
2021/03/13 11:08:13;;;;;;;1.83;0.57;;;19.80;43.20;;;;;;5079449;27;20515;-69
2021/03/13 11:10:40;;;;;;;0.40;0.40;;;19.80;42.80;;;;;;5083115;28;20489;-69
2021/03/13 11:13:07;;;;;;;1.00;0.50;;;19.80;42.70;;;;;;5071302;28;20602;-69
2021/03/13 11:15:33;;;;;;;0.60;0.60;;;19.80;42.50;;;;;;5069315;28;20488;-69
2021/03/13 11:17:59;;;;;;;0.80;0.50;;;19.80;42.40;;;;;;5070354;28;20528;-69
2021/03/13 11:20:25;;;;;;;3.40;0.57;;;19.80;42.50;;;;;;5067562;28;20486;-69
2021/03/13 11:22:51;;;;;;;0.60;0.60;;;19.80;42.50;;;;;;5064897;28;20496;-69
2021/03/13 11:25:18;;;;;;;0.90;0.60;;;19.80;42.30;;;;;;5065896;28;20493;-69
2021/03/13 11:27:45;;;;;;;0.80;0.70;;;19.90;42.30;;;;;;5066929;28;20476;-69
2021/03/13 11:30:12;;;;;;;2.07;0.70;;;19.90;42.20;;;;;;5062685;28;20501;-69
2021/03/13 11:32:38;;;;;;;0.50;0.40;;;19.90;42.30;;;;;;5097719;27;20492;-69
2021/03/13 11:35:05;;;;;;;0.90;0.60;;;19.80;42.40;;;;;;5066451;28;20627;-69
2021/03/13 11:37:32;;;;;;;1.43;0.60;;;19.80;42.60;;;;;;5068488;28;20483;-70
2021/03/13 11:39:58;;;;;;;3.93;0.70;;;19.80;42.60;;;;;;5065761;28;20502;-69
2021/03/13 11:42:27;;;;;;;0.60;0.60;;;19.80;42.70;;;;;;5069666;28;20489;-69
2021/03/13 11:44:55;;;;;;;0.60;0.57;;;19.80;42.60;;;;;;5067403;28;20564;-68
2021/03/13 11:47:22;;;;;;;3.50;0.80;;;19.80;42.60;;;;;;5068526;28;20494;-69
2021/03/13 11:49:48;;;;;;;0.87;0.57;;;19.80;42.60;;;;;;5067432;28;20823;-68
2021/03/13 11:52:16;;;;;;;0.60;0.60;;;19.80;42.60;;;;;;5067600;28;20487;-68
2021/03/13 11:54:43;;;;;;;5.00;0.67;;;19.80;43.80;;;;;;5067031;28;20538;-68
2021/03/13 11:57:09;;;;;;;1.80;1.00;;;19.90;45.70;;;;;;5069927;28;21151;-69
2021/03/13 11:59:35;;;;;;;1.57;0.53;;;19.80;43.30;;;;;;5064931;27;20482;-68
2021/03/13 12:02:02;;;;;;;0.50;0.50;;;19.90;43.10;;;;;;5093596;27;20481;-69
2021/03/13 12:04:28;;;;;;;4.60;0.70;;;19.80;42.90;;;;;;5065496;28;21272;-69
2021/03/13 12:06:55;;;;;;;1.07;0.97;;;19.80;42.80;;;;;;5060966;28;21125;-69
2021/03/13 12:09:21;;;;;;;0.90;0.90;;;19.80;42.90;;;;;;5093072;27;20492;-68
2021/03/13 12:11:47;;;;;;;2.57;0.90;;;19.80;43.00;;;;;;5072031;28;20485;-69
2021/03/13 12:14:13;;;;;;;1.10;1.00;;;19.80;42.90;;;;;;5063956;28;20492;-68
2021/03/13 12:16:39;;;;;;;0.60;0.60;;;19.80;42.90;;;;;;5072320;28;20478;-69
2021/03/13 12:19:06;;;;;;;0.67;0.67;;;19.80;43.10;;;;;;5079772;27;22106;-69
2021/03/13 12:21:33;;;;;;;1.50;0.63;;;19.70;43.00;;;;;;5072949;28;20485;-69
2021/03/13 12:23:59;;;;;;;0.50;0.50;;;19.80;43.10;;;;;;5086625;28;20481;-68
2021/03/13 12:26:25;;;;;;;0.73;0.60;;;19.80;42.90;;;;;;5066337;28;20911;-69
2021/03/13 12:28:52;;;;;;;0.50;0.50;;;19.80;43.00;;;;;;5067400;28;20477;-70
2021/03/13 12:31:18;;;;;;;0.63;0.50;;;19.80;42.90;;;;;;5085469;27;20556;-68
2021/03/13 12:33:44;;;;;;;2.43;1.73;;;19.80;43.00;;;;;;5069321;28;20476;-68
2021/03/13 12:36:11;;;;;;;2.73;0.70;;;19.80;43.00;;;;;;5064761;28;21511;-69
2021/03/13 12:38:37;;;;;;;0.90;0.90;;;19.80;43.00;;;;;;5089474;28;20931;-69
2021/03/13 12:41:04;;;;;;;2.30;0.63;;;19.80;43.10;;;;;;5090572;27;20546;-69
2021/03/13 12:43:30;;;;;;;0.50;0.50;;;19.80;43.20;;;;;;5067064;28;20492;-69
2021/03/13 12:45:57;;;;;;;1.70;0.60;;;19.70;43.10;;;;;;5064346;28;21203;-70
2021/03/13 12:48:23;;;;;;;0.40;0.40;;;19.70;43.30;;;;;;5067237;28;20532;-69
2021/03/13 12:50:50;;;;;;;1.00;0.90;;;19.70;43.20;;;;;;5066486;28;20477;-69
2021/03/13 12:53:17;;;;;;;1.13;0.60;;;19.70;43.10;;;;;;5066204;28;20497;-69